Time,TemperatureF,DewpointF,PressureIn,WindDirection,WindDirectionDegrees,WindSpeedMPH,WindSpeedGustMPH,Humidity,HourlyPrecipIn,Conditions,Clouds,dailyrainin,SoftwareType,DateUTC
2013-01-14 00:04:00,37.3,24.7,30.19,NE,51,0.0,2.0,60,0.00,,,0.00,WeatherTracker,2013-01-14 08:04:00,
2013-01-14 00:09:00,37.4,25.2,30.19,NE,51,0.0,1.0,61,0.00,,,0.00,WeatherTracker,2013-01-14 08:09:00,
2013-01-14 00:14:00,37.4,24.8,30.20,NE,51,0.0,0.0,60,0.00,,,0.00,WeatherTracker,2013-01-14 08:14:00,
2013-01-14 00:19:00,37.3,23.5,30.20,NE,51,0.0,1.0,57,0.00,,,0.00,WeatherTracker,2013-01-14 08:19:00,
2013-01-14 00:24:00,37.3,23.5,30.20,NE,49,0.0,1.0,57,0.00,,,0.00,WeatherTracker,2013-01-14 08:24:00,
2013-01-14 00:29:00,37.4,22.3,30.20,NE,49,0.0,2.0,54,0.00,,,0.00,WeatherTracker,2013-01-14 08:29:00,
2013-01-14 00:34:00,37.5,23.2,30.20,NE,51,0.0,2.0,56,0.00,,,0.00,WeatherTracker,2013-01-14 08:34:00,
2013-01-14 00:39:00,37.6,21.6,30.20,NE,51,0.0,2.0,52,0.00,,,0.00,WeatherTracker,2013-01-14 08:39:00,
2013-01-14 00:45:00,37.7,22.1,30.21,NE,51,0.0,1.0,53,0.00,,,0.00,WeatherTracker,2013-01-14 08:45:00,
2013-01-14 00:50:00,37.8,21.3,30.21,NE,51,0.0,1.0,51,0.00,,,0.00,WeatherTracker,2013-01-14 08:50:00,
2013-01-14 00:55:00,37.8,22.7,30.21,NE,51,0.0,1.0,54,0.00,,,0.00,WeatherTracker,2013-01-14 08:55:00,
2013-01-14 01:00:00,37.5,21.9,30.21,NE,51,0.0,0.0,53,0.00,,,0.00,WeatherTracker,2013-01-14 09:00:00,
2013-01-14 01:05:00,37.3,22.6,30.22,NE,51,0.0,0.0,55,0.00,,,0.00,WeatherTracker,2013-01-14 09:05:00,
2013-01-14 01:10:00,36.9,23.1,30.22,NE,51,0.0,0.0,57,0.00,,,0.00,WeatherTracker,2013-01-14 09:10:00,
2013-01-14 01:15:00,36.4,23.1,30.23,NE,51,0.0,1.0,58,0.00,,,0.00,WeatherTracker,2013-01-14 09:15:00,
2013-01-14 01:20:00,36.0,23.5,30.23,NE,51,0.0,1.0,60,0.00,,,0.00,WeatherTracker,2013-01-14 09:20:00,
2013-01-14 01:25:00,35.4,23.3,30.23,NE,51,0.0,0.0,61,0.00,,,0.00,WeatherTracker,2013-01-14 09:25:00,
2013-01-14 01:30:00,35.1,23.8,30.23,NE,51,0.0,0.0,63,0.00,,,0.00,WeatherTracker,2013-01-14 09:30:00,
2013-01-14 01:35:00,34.5,22.8,30.23,NE,51,0.0,0.0,62,0.00,,,0.00,WeatherTracker,2013-01-14 09:35:00,
2013-01-14 01:40:00,34.3,23.0,30.24,NE,51,0.0,0.0,63,0.00,,,0.00,WeatherTracker,2013-01-14 09:40:00,
2013-01-14 01:45:00,33.9,23.4,30.24,NE,51,0.0,0.0,65,0.00,,,0.00,WeatherTracker,2013-01-14 09:45:00,
2013-01-14 01:50:00,33.6,23.1,30.24,NE,51,0.0,0.0,65,0.00,,,0.00,WeatherTracker,2013-01-14 09:50:00,
2013-01-14 01:55:00,33.4,23.3,30.24,NE,51,0.0,0.0,66,0.00,,,0.00,WeatherTracker,2013-01-14 09:55:00,
2013-01-14 02:00:00,33.2,23.1,30.24,NE,51,0.0,0.0,66,0.00,,,0.00,WeatherTracker,2013-01-14 10:00:00,
2013-01-14 02:05:00,32.9,23.2,30.24,NE,51,0.0,0.0,67,0.00,,,0.00,WeatherTracker,2013-01-14 10:05:00,
2013-01-14 02:10:00,32.7,23.0,30.25,NE,51,0.0,0.0,67,0.00,,,0.00,WeatherTracker,2013-01-14 10:10:00,
2013-01-14 02:15:00,32.4,23.0,30.25,NE,51,0.0,0.0,68,0.00,,,0.00,WeatherTracker,2013-01-14 10:15:00,
2013-01-14 02:20:00,32.1,23.1,30.25,NE,51,0.0,0.0,69,0.00,,,0.00,WeatherTracker,2013-01-14 10:20:00,
2013-01-14 02:25:00,31.9,22.9,30.25,NE,51,0.0,0.0,69,0.00,,,0.00,WeatherTracker,2013-01-14 10:25:00,
2013-01-14 02:30:00,31.7,23.1,30.25,NE,51,0.0,0.0,70,0.00,,,0.00,WeatherTracker,2013-01-14 10:30:00,
2013-01-14 02:36:00,31.4,22.8,30.25,NE,51,0.0,0.0,70,0.00,,,0.00,WeatherTracker,2013-01-14 10:36:00,
2013-01-14 02:41:00,31.2,22.9,30.25,NE,51,0.0,0.0,71,0.00,,,0.00,WeatherTracker,2013-01-14 10:41:00,
2013-01-14 02:46:00,30.9,22.6,30.25,NE,51,0.0,0.0,71,0.00,,,0.00,WeatherTracker,2013-01-14 10:46:00,
2013-01-14 02:51:00,30.7,22.8,30.25,NE,51,0.0,0.0,72,0.00,,,0.00,WeatherTracker,2013-01-14 10:51:00,
2013-01-14 02:56:00,30.6,23.0,30.25,NE,51,0.0,0.0,73,0.00,,,0.00,WeatherTracker,2013-01-14 10:56:00,
2013-01-14 03:01:00,30.5,22.9,30.25,NE,51,0.0,0.0,73,0.00,,,0.00,WeatherTracker,2013-01-14 11:01:00,
2013-01-14 03:06:00,30.3,22.7,30.25,NE,51,0.0,0.0,73,0.00,,,0.00,WeatherTracker,2013-01-14 11:06:00,
2013-01-14 03:11:00,30.2,22.9,30.25,NE,51,0.0,0.0,74,0.00,,,0.00,WeatherTracker,2013-01-14 11:11:00,
2013-01-14 03:16:00,30.0,22.7,30.25,NE,51,0.0,0.0,74,0.00,,,0.00,WeatherTracker,2013-01-14 11:16:00,
2013-01-14 03:21:00,29.9,22.6,30.25,NE,51,0.0,0.0,74,0.00,,,0.00,WeatherTracker,2013-01-14 11:21:00,
2013-01-14 03:26:00,29.7,22.8,30.25,NE,51,0.0,0.0,75,0.00,,,0.00,WeatherTracker,2013-01-14 11:26:00,
2013-01-14 03:32:00,29.6,23.0,30.26,NE,51,0.0,0.0,76,0.00,,,0.00,WeatherTracker,2013-01-14 11:32:00,
2013-01-14 03:37:00,29.5,22.9,30.26,NE,51,0.0,0.0,76,0.00,,,0.00,WeatherTracker,2013-01-14 11:37:00,
2013-01-14 03:42:00,29.3,22.7,30.26,NE,51,0.0,0.0,76,0.00,,,0.00,WeatherTracker,2013-01-14 11:42:00,
2013-01-14 03:47:00,29.2,22.9,30.26,NE,51,0.0,0.0,77,0.00,,,0.00,WeatherTracker,2013-01-14 11:47:00,
2013-01-14 03:52:00,29.0,22.7,30.26,NE,51,0.0,0.0,77,0.00,,,0.00,WeatherTracker,2013-01-14 11:52:00,
2013-01-14 03:57:00,28.9,22.6,30.26,NE,51,0.0,0.0,77,0.00,,,0.00,WeatherTracker,2013-01-14 11:57:00,
2013-01-14 04:02:00,28.8,22.8,30.27,NE,51,0.0,0.0,78,0.00,,,0.00,WeatherTracker,2013-01-14 12:02:00,
2013-01-14 04:07:00,28.7,22.7,30.26,NE,51,0.0,0.0,78,0.00,,,0.00,WeatherTracker,2013-01-14 12:07:00,
2013-01-14 04:12:00,28.6,22.9,30.27,NE,51,0.0,1.0,79,0.00,,,0.00,WeatherTracker,2013-01-14 12:12:00,
2013-01-14 04:17:00,28.5,22.8,30.27,NE,51,0.0,1.0,79,0.00,,,0.00,WeatherTracker,2013-01-14 12:17:00,
2013-01-14 04:22:00,28.4,22.7,30.26,NE,51,0.0,0.0,79,0.00,,,0.00,WeatherTracker,2013-01-14 12:22:00,
2013-01-14 04:27:00,28.3,22.6,30.27,NE,51,0.0,0.0,79,0.00,,,0.00,WeatherTracker,2013-01-14 12:27:00,
2013-01-14 04:32:00,28.3,22.9,30.26,NE,51,0.0,0.0,80,0.00,,,0.00,WeatherTracker,2013-01-14 12:32:00,
2013-01-14 04:37:00,28.2,22.5,30.27,NE,51,0.0,0.0,79,0.00,,,0.00,WeatherTracker,2013-01-14 12:37:00,
2013-01-14 04:42:00,28.1,22.7,30.27,NE,51,0.0,0.0,80,0.00,,,0.00,WeatherTracker,2013-01-14 12:42:00,
2013-01-14 04:47:00,28.0,22.6,30.27,NE,51,0.0,0.0,80,0.00,,,0.00,WeatherTracker,2013-01-14 12:47:00,
2013-01-14 04:52:00,28.0,22.6,30.28,NE,51,0.0,0.0,80,0.00,,,0.00,WeatherTracker,2013-01-14 12:52:00,
2013-01-14 04:57:00,27.9,22.5,30.28,NE,51,0.0,0.0,80,0.00,,,0.00,WeatherTracker,2013-01-14 12:57:00,
2013-01-14 05:02:00,27.8,22.4,30.28,NE,51,0.0,0.0,80,0.00,,,0.00,WeatherTracker,2013-01-14 13:02:00,
2013-01-14 05:07:00,27.7,22.6,30.28,NE,51,0.0,0.0,81,0.00,,,0.00,WeatherTracker,2013-01-14 13:07:00,
2013-01-14 05:12:00,27.7,22.6,30.28,NE,51,1.0,1.0,81,0.00,,,0.00,WeatherTracker,2013-01-14 13:12:00,
2013-01-14 05:17:00,27.7,22.6,30.28,NE,51,0.0,1.0,81,0.00,,,0.00,WeatherTracker,2013-01-14 13:17:00,
2013-01-14 05:22:00,27.7,22.6,30.28,NE,51,0.0,1.0,81,0.00,,,0.00,WeatherTracker,2013-01-14 13:22:00,
2013-01-14 05:27:00,27.7,22.4,30.28,NE,51,0.0,1.0,80,0.00,,,0.00,WeatherTracker,2013-01-14 13:27:00,
2013-01-14 05:33:00,27.7,22.6,30.28,NE,51,0.0,0.0,81,0.00,,,0.00,WeatherTracker,2013-01-14 13:33:00,
2013-01-14 05:38:00,27.7,22.4,30.28,NE,51,0.0,0.0,80,0.00,,,0.00,WeatherTracker,2013-01-14 13:38:00,
2013-01-14 05:43:00,27.7,22.4,30.29,NE,51,0.0,0.0,80,0.00,,,0.00,WeatherTracker,2013-01-14 13:43:00,
2013-01-14 05:48:00,27.7,22.4,30.28,NE,51,0.0,0.0,80,0.00,,,0.00,WeatherTracker,2013-01-14 13:48:00,
2013-01-14 05:53:00,27.7,22.4,30.29,NE,51,0.0,0.0,80,0.00,,,0.00,WeatherTracker,2013-01-14 13:53:00,
2013-01-14 05:58:00,27.6,22.5,30.29,NE,51,0.0,0.0,81,0.00,,,0.00,WeatherTracker,2013-01-14 13:58:00,
2013-01-14 06:03:00,27.6,22.5,30.29,NE,51,0.0,0.0,81,0.00,,,0.00,WeatherTracker,2013-01-14 14:03:00,
2013-01-14 06:08:00,27.6,22.5,30.30,NE,51,0.0,0.0,81,0.00,,,0.00,WeatherTracker,2013-01-14 14:08:00,
2013-01-14 06:13:00,27.5,22.4,30.30,NE,51,0.0,0.0,81,0.00,,,0.00,WeatherTracker,2013-01-14 14:13:00,
2013-01-14 06:18:00,27.5,22.4,30.31,NE,51,0.0,0.0,81,0.00,,,0.00,WeatherTracker,2013-01-14 14:18:00,
2013-01-14 06:23:00,27.5,22.4,30.31,NE,51,0.0,0.0,81,0.00,,,0.00,WeatherTracker,2013-01-14 14:23:00,
2013-01-14 06:28:00,27.5,22.4,30.31,NE,51,0.0,0.0,81,0.00,,,0.00,WeatherTracker,2013-01-14 14:28:00,
2013-01-14 06:33:00,27.6,22.5,30.31,NE,51,0.0,0.0,81,0.00,,,0.00,WeatherTracker,2013-01-14 14:33:00,
2013-01-14 06:38:00,27.6,22.5,30.32,NE,51,0.0,0.0,81,0.00,,,0.00,WeatherTracker,2013-01-14 14:38:00,
2013-01-14 06:43:00,27.6,22.5,30.32,NE,51,0.0,0.0,81,0.00,,,0.00,WeatherTracker,2013-01-14 14:43:00,
2013-01-14 06:48:00,27.6,22.5,30.32,NE,51,0.0,0.0,81,0.00,,,0.00,WeatherTracker,2013-01-14 14:48:00,
2013-01-14 06:53:00,27.6,22.5,30.33,NE,51,0.0,0.0,81,0.00,,,0.00,WeatherTracker,2013-01-14 14:53:00,
2013-01-14 06:58:00,27.7,22.6,30.33,NE,51,0.0,0.0,81,0.00,,,0.00,WeatherTracker,2013-01-14 14:58:00,
2013-01-14 07:03:00,27.7,22.6,30.33,NE,51,0.0,0.0,81,0.00,,,0.00,WeatherTracker,2013-01-14 15:03:00,
2013-01-14 07:08:00,27.6,22.5,30.33,NE,51,0.0,0.0,81,0.00,,,0.00,WeatherTracker,2013-01-14 15:08:00,
2013-01-14 07:13:00,27.6,22.3,30.33,NE,51,0.0,0.0,80,0.00,,,0.00,WeatherTracker,2013-01-14 15:13:00,
2013-01-14 07:18:00,27.6,22.3,30.33,NE,51,0.0,0.0,80,0.00,,,0.00,WeatherTracker,2013-01-14 15:18:00,
2013-01-14 07:23:00,27.7,22.6,30.33,NE,51,0.0,0.0,81,0.00,,,0.00,WeatherTracker,2013-01-14 15:23:00,
2013-01-14 07:28:00,27.7,22.6,30.34,NE,51,0.0,0.0,81,0.00,,,0.00,WeatherTracker,2013-01-14 15:28:00,
2013-01-14 07:33:00,27.7,22.6,30.34,NE,51,0.0,0.0,81,0.00,,,0.00,WeatherTracker,2013-01-14 15:33:00,
2013-01-14 07:38:00,27.7,22.6,30.34,NE,51,0.0,0.0,81,0.00,,,0.00,WeatherTracker,2013-01-14 15:38:00,
2013-01-14 07:44:00,27.7,22.4,30.34,NE,51,0.0,0.0,80,0.00,,,0.00,WeatherTracker,2013-01-14 15:44:00,
2013-01-14 07:49:00,27.8,22.7,30.35,NE,51,0.0,0.0,81,0.00,,,0.00,WeatherTracker,2013-01-14 15:49:00,
2013-01-14 07:54:00,27.9,22.8,30.35,NE,51,0.0,1.0,81,0.00,,,0.00,WeatherTracker,2013-01-14 15:54:00,
2013-01-14 07:59:00,28.1,23.0,30.35,NE,51,0.0,1.0,81,0.00,,,0.00,WeatherTracker,2013-01-14 15:59:00,
2013-01-14 08:04:00,28.3,22.9,30.35,NE,51,0.0,1.0,80,0.00,,,0.00,WeatherTracker,2013-01-14 16:04:00,
2013-01-14 08:09:00,28.7,23.3,30.35,NE,51,0.0,0.0,80,0.00,,,0.00,WeatherTracker,2013-01-14 16:09:00,
2013-01-14 08:14:00,29.0,23.6,30.35,NE,51,0.0,0.0,80,0.00,,,0.00,WeatherTracker,2013-01-14 16:14:00,
2013-01-14 08:19:00,29.4,24.0,30.36,NE,51,0.0,0.0,80,0.00,,,0.00,WeatherTracker,2013-01-14 16:19:00,
2013-01-14 08:24:00,29.7,24.3,30.36,NE,51,0.0,1.0,80,0.00,,,0.00,WeatherTracker,2013-01-14 16:24:00,
2013-01-14 08:29:00,30.1,24.7,30.36,NE,51,0.0,1.0,80,0.00,,,0.00,WeatherTracker,2013-01-14 16:29:00,
2013-01-14 08:34:00,30.6,24.9,30.36,NE,51,0.0,0.0,79,0.00,,,0.00,WeatherTracker,2013-01-14 16:34:00,
2013-01-14 08:39:00,31.1,25.1,30.37,NE,51,0.0,0.0,78,0.00,,,0.00,WeatherTracker,2013-01-14 16:39:00,
2013-01-14 08:44:00,31.7,25.6,30.36,NE,51,0.0,0.0,78,0.00,,,0.00,WeatherTracker,2013-01-14 16:44:00,
2013-01-14 08:49:00,32.1,25.7,30.37,NE,51,0.0,0.0,77,0.00,,,0.00,WeatherTracker,2013-01-14 16:49:00,
2013-01-14 08:54:00,32.6,26.5,30.37,NE,51,0.0,0.0,78,0.00,,,0.00,WeatherTracker,2013-01-14 16:54:00,
2013-01-14 08:59:00,33.3,23.9,30.37,NE,51,0.0,1.0,68,0.00,,,0.00,WeatherTracker,2013-01-14 16:59:00,
2013-01-14 09:04:00,34.0,23.9,30.37,NE,51,0.0,1.0,66,0.00,,,0.00,WeatherTracker,2013-01-14 17:04:00,
2013-01-14 09:09:00,34.5,24.0,30.37,NE,51,0.0,0.0,65,0.00,,,0.00,WeatherTracker,2013-01-14 17:09:00,
2013-01-14 09:14:00,35.1,23.0,30.37,NE,51,0.0,1.0,61,0.00,,,0.00,WeatherTracker,2013-01-14 17:14:00,
2013-01-14 09:19:00,35.8,22.1,30.37,NE,51,0.0,1.0,57,0.00,,,0.00,WeatherTracker,2013-01-14 17:19:00,
2013-01-14 09:24:00,36.8,22.2,30.37,NE,51,0.0,1.0,55,0.00,,,0.00,WeatherTracker,2013-01-14 17:24:00,
2013-01-14 09:29:00,37.7,22.1,30.37,NE,51,0.0,1.0,53,0.00,,,0.00,WeatherTracker,2013-01-14 17:29:00,
2013-01-14 09:34:00,38.6,23.4,30.37,NE,51,0.0,1.0,54,0.00,,,0.00,WeatherTracker,2013-01-14 17:34:00,
2013-01-14 09:39:00,39.2,22.6,30.37,NE,51,0.0,1.0,51,0.00,,,0.00,WeatherTracker,2013-01-14 17:39:00,
2013-01-14 09:44:00,39.7,22.6,30.37,NE,51,0.0,1.0,50,0.00,,,0.00,WeatherTracker,2013-01-14 17:44:00,
2013-01-14 09:49:00,40.1,22.0,30.37,NE,51,0.0,1.0,48,0.00,,,0.00,WeatherTracker,2013-01-14 17:49:00,
2013-01-14 09:54:00,40.6,21.5,30.37,NE,51,0.0,1.0,46,0.00,,,0.00,WeatherTracker,2013-01-14 17:54:00,
2013-01-14 09:59:00,41.1,21.9,30.38,NE,51,0.0,1.0,46,0.00,,,0.00,WeatherTracker,2013-01-14 17:59:00,
2013-01-14 10:05:00,41.6,21.9,30.38,NE,51,0.0,1.0,45,0.00,,,0.00,WeatherTracker,2013-01-14 18:05:00,
2013-01-14 10:10:00,41.8,21.5,30.38,NE,51,0.0,1.0,44,0.00,,,0.00,WeatherTracker,2013-01-14 18:10:00,
2013-01-14 10:15:00,42.1,21.2,30.37,ENE,57,0.0,3.0,43,0.00,,,0.00,WeatherTracker,2013-01-14 18:15:00,
2013-01-14 10:20:00,42.4,20.4,30.37,ENE,57,0.0,3.0,41,0.00,,,0.00,WeatherTracker,2013-01-14 18:20:00,
2013-01-14 10:25:00,42.6,20.6,30.37,ENE,60,0.0,2.0,41,0.00,,,0.00,WeatherTracker,2013-01-14 18:25:00,
2013-01-14 10:30:00,42.8,20.7,30.37,ENE,60,0.0,1.0,41,0.00,,,0.00,WeatherTracker,2013-01-14 18:30:00,
2013-01-14 10:35:00,43.1,21.0,30.37,ENE,60,0.0,1.0,41,0.00,,,0.00,WeatherTracker,2013-01-14 18:35:00,
2013-01-14 10:40:00,43.3,21.2,30.37,ENE,71,0.0,2.0,41,0.00,,,0.00,WeatherTracker,2013-01-14 18:40:00,
2013-01-14 10:45:00,43.6,21.5,30.37,ENE,71,0.0,2.0,41,0.00,,,0.00,WeatherTracker,2013-01-14 18:45:00,
2013-01-14 10:50:00,44.0,22.4,30.37,ENE,71,0.0,1.0,42,0.00,,,0.00,WeatherTracker,2013-01-14 18:50:00,
2013-01-14 10:55:00,44.3,22.1,30.37,ENE,71,0.0,1.0,41,0.00,,,0.00,WeatherTracker,2013-01-14 18:55:00,
2013-01-14 11:00:00,44.6,21.8,30.37,ENE,71,0.0,1.0,40,0.00,,,0.00,WeatherTracker,2013-01-14 19:00:00,
2013-01-14 11:05:00,44.7,21.3,30.37,ENE,71,0.0,1.0,39,0.00,,,0.00,WeatherTracker,2013-01-14 19:05:00,
2013-01-14 11:10:00,44.5,21.1,30.36,ENE,72,0.0,1.0,39,0.00,,,0.00,WeatherTracker,2013-01-14 19:10:00,
2013-01-14 11:15:00,44.7,21.9,30.36,ENE,73,0.0,1.0,40,0.00,,,0.00,WeatherTracker,2013-01-14 19:15:00,
2013-01-14 11:20:00,44.9,21.5,30.36,ENE,72,0.0,1.0,39,0.00,,,0.00,WeatherTracker,2013-01-14 19:20:00,
2013-01-14 11:25:00,45.2,22.3,30.36,ENE,73,0.0,1.0,40,0.00,,,0.00,WeatherTracker,2013-01-14 19:25:00,
2013-01-14 11:30:00,45.7,20.9,30.36,ESE,109,1.0,1.0,37,0.00,,,0.00,WeatherTracker,2013-01-14 19:30:00,
2013-01-14 11:36:00,46.0,21.2,30.35,SE,134,1.0,2.0,37,0.00,,,0.00,WeatherTracker,2013-01-14 19:36:00,
2013-01-14 11:41:00,46.4,21.6,30.35,SE,134,0.0,1.0,37,0.00,,,0.00,WeatherTracker,2013-01-14 19:41:00,
2013-01-14 11:46:00,46.5,21.0,30.35,SE,135,0.0,1.0,36,0.00,,,0.00,WeatherTracker,2013-01-14 19:46:00,
2013-01-14 11:51:00,46.6,21.7,30.34,SE,134,0.0,1.0,37,0.00,,,0.00,WeatherTracker,2013-01-14 19:51:00,
2013-01-14 11:56:00,46.7,22.5,30.35,SE,135,0.0,1.0,38,0.00,,,0.00,WeatherTracker,2013-01-14 19:56:00,
2013-01-14 12:01:00,46.9,22.0,30.34,SE,132,0.0,1.0,37,0.00,,,0.00,WeatherTracker,2013-01-14 20:01:00,
2013-01-14 12:06:00,47.2,22.9,30.34,ESE,114,0.0,1.0,38,0.00,,,0.00,WeatherTracker,2013-01-14 20:06:00,
2013-01-14 12:11:00,47.6,22.6,30.33,ESE,115,0.0,1.0,37,0.00,,,0.00,WeatherTracker,2013-01-14 20:11:00,
2013-01-14 12:16:00,47.8,22.8,30.33,ESE,115,0.0,1.0,37,0.00,,,0.00,WeatherTracker,2013-01-14 20:16:00,
2013-01-14 12:21:00,47.9,22.2,30.33,ESE,115,1.0,2.0,36,0.00,,,0.00,WeatherTracker,2013-01-14 20:21:00,
2013-01-14 12:26:00,48.0,21.7,30.32,ESE,121,0.0,2.0,35,0.00,,,0.00,WeatherTracker,2013-01-14 20:26:00,
2013-01-14 12:31:00,48.4,20.6,30.32,SE,128,0.0,2.0,33,0.00,,,0.00,WeatherTracker,2013-01-14 20:31:00,
2013-01-14 12:36:00,48.8,22.4,30.32,SE,128,0.0,2.0,35,0.00,,,0.00,WeatherTracker,2013-01-14 20:36:00,
2013-01-14 12:41:00,49.4,21.5,30.32,SE,136,0.0,1.0,33,0.00,,,0.00,WeatherTracker,2013-01-14 20:41:00,
2013-01-14 12:46:00,49.9,22.7,30.31,SE,136,0.0,1.0,34,0.00,,,0.00,WeatherTracker,2013-01-14 20:46:00,
2013-01-14 12:51:00,50.2,21.5,30.31,East,99,0.0,1.0,32,0.00,,,0.00,WeatherTracker,2013-01-14 20:51:00,
2013-01-14 12:56:00,50.4,22.4,30.32,ESE,107,0.0,2.0,33,0.00,,,0.00,WeatherTracker,2013-01-14 20:56:00,
2013-01-14 13:01:00,50.6,21.8,30.32,ESE,107,0.0,2.0,32,0.00,,,0.00,WeatherTracker,2013-01-14 21:01:00,
2013-01-14 13:06:00,50.5,21.8,30.32,ESE,107,0.0,1.0,32,0.00,,,0.00,WeatherTracker,2013-01-14 21:06:00,
2013-01-14 13:11:00,50.6,21.1,30.32,ESE,117,0.0,2.0,31,0.00,,,0.00,WeatherTracker,2013-01-14 21:11:00,
2013-01-14 13:16:00,50.8,22.0,30.32,ESE,119,0.0,2.0,32,0.00,,,0.00,WeatherTracker,2013-01-14 21:16:00,
2013-01-14 13:21:00,51.0,22.9,30.31,ESE,119,0.0,2.0,33,0.00,,,0.00,WeatherTracker,2013-01-14 21:21:00,
2013-01-14 13:26:00,51.4,23.3,30.32,ESE,119,0.0,1.0,33,0.00,,,0.00,WeatherTracker,2013-01-14 21:26:00,
2013-01-14 13:31:00,51.5,21.9,30.32,ESE,119,0.0,1.0,31,0.00,,,0.00,WeatherTracker,2013-01-14 21:31:00,
2013-01-14 13:36:00,51.7,23.5,30.32,ESE,105,1.0,1.0,33,0.00,,,0.00,WeatherTracker,2013-01-14 21:36:00,
2013-01-14 13:41:00,51.7,23.5,30.32,ENE,78,0.0,2.0,33,0.00,,,0.00,WeatherTracker,2013-01-14 21:41:00,
2013-01-14 13:46:00,51.5,21.9,30.32,East,79,0.0,2.0,31,0.00,,,0.00,WeatherTracker,2013-01-14 21:46:00,
2013-01-14 13:51:00,51.3,21.7,30.32,East,79,0.0,2.0,31,0.00,,,0.00,WeatherTracker,2013-01-14 21:51:00,
2013-01-14 13:56:00,51.3,22.5,30.32,SE,144,0.0,2.0,32,0.00,,,0.00,WeatherTracker,2013-01-14 21:56:00,
2013-01-14 14:01:00,51.5,23.4,30.32,SE,144,0.0,2.0,33,0.00,,,0.00,WeatherTracker,2013-01-14 22:01:00,
2013-01-14 14:06:00,51.7,22.1,30.32,SE,144,0.0,1.0,31,0.00,,,0.00,WeatherTracker,2013-01-14 22:06:00,
2013-01-14 14:12:00,51.9,22.2,30.32,SE,129,0.0,1.0,31,0.00,,,0.00,WeatherTracker,2013-01-14 22:12:00,
2013-01-14 14:17:00,52.4,21.9,30.32,SE,129,0.0,1.0,30,0.00,,,0.00,WeatherTracker,2013-01-14 22:17:00,
2013-01-14 14:22:00,52.7,22.1,30.32,SE,129,0.0,1.0,30,0.00,,,0.00,WeatherTracker,2013-01-14 22:22:00,
2013-01-14 14:27:00,52.7,22.9,30.32,SE,129,0.0,1.0,31,0.00,,,0.00,WeatherTracker,2013-01-14 22:27:00,
2013-01-14 14:32:00,52.4,21.9,30.33,SE,129,0.0,1.0,30,0.00,,,0.00,WeatherTracker,2013-01-14 22:32:00,
2013-01-14 14:37:00,51.8,23.6,30.33,SE,129,0.0,1.0,33,0.00,,,0.00,WeatherTracker,2013-01-14 22:37:00,
2013-01-14 14:42:00,51.4,22.5,30.33,SE,129,0.0,1.0,32,0.00,,,0.00,WeatherTracker,2013-01-14 22:42:00,
2013-01-14 14:47:00,51.0,20.7,30.33,SE,129,0.0,2.0,30,0.00,,,0.00,WeatherTracker,2013-01-14 22:47:00,
2013-01-14 14:52:00,50.9,22.1,30.33,SE,129,0.0,2.0,32,0.00,,,0.00,WeatherTracker,2013-01-14 22:52:00,
2013-01-14 14:57:00,51.0,21.4,30.33,SE,129,0.0,1.0,31,0.00,,,0.00,WeatherTracker,2013-01-14 22:57:00,
2013-01-14 15:02:00,50.8,22.0,30.33,SE,129,0.0,1.0,32,0.00,,,0.00,WeatherTracker,2013-01-14 23:02:00,
2013-01-14 15:07:00,50.4,21.7,30.33,SE,129,0.0,1.0,32,0.00,,,0.00,WeatherTracker,2013-01-14 23:07:00,
2013-01-14 15:12:00,50.0,22.0,30.33,SSW,208,0.0,4.0,33,0.00,,,0.00,WeatherTracker,2013-01-14 23:12:00,
2013-01-14 15:17:00,49.9,22.7,30.33,SSW,208,0.0,4.0,34,0.00,,,0.00,WeatherTracker,2013-01-14 23:17:00,
2013-01-14 15:22:00,49.8,22.6,30.33,SE,141,0.0,1.0,34,0.00,,,0.00,WeatherTracker,2013-01-14 23:22:00,
2013-01-14 15:28:00,49.6,21.7,30.32,SE,129,0.0,2.0,33,0.00,,,0.00,WeatherTracker,2013-01-14 23:28:00,
2013-01-14 15:33:00,49.4,22.2,30.32,SE,129,0.0,2.0,34,0.00,,,0.00,WeatherTracker,2013-01-14 23:33:00,
2013-01-14 15:38:00,49.2,22.7,30.33,SE,129,0.0,0.0,35,0.00,,,0.00,WeatherTracker,2013-01-14 23:38:00,
2013-01-14 15:43:00,48.9,22.5,30.33,SE,129,0.0,0.0,35,0.00,,,0.00,WeatherTracker,2013-01-14 23:43:00,
2013-01-14 15:48:00,48.7,21.6,30.33,SE,129,0.0,1.0,34,0.00,,,0.00,WeatherTracker,2013-01-14 23:48:00,
2013-01-14 15:53:00,48.5,22.1,30.33,SE,129,0.0,1.0,35,0.00,,,0.00,WeatherTracker,2013-01-14 23:53:00,
2013-01-14 15:58:00,48.3,22.6,30.33,SE,129,0.0,1.0,36,0.00,,,0.00,WeatherTracker,2013-01-14 23:58:00,
2013-01-14 16:03:00,48.1,21.8,30.33,SE,129,0.0,0.0,35,0.00,,,0.00,WeatherTracker,2013-01-15 00:03:00,
2013-01-14 16:08:00,48.0,22.3,30.33,SE,129,0.0,0.0,36,0.00,,,0.00,WeatherTracker,2013-01-15 00:08:00,
2013-01-14 16:13:00,47.9,22.2,30.33,SE,129,0.0,1.0,36,0.00,,,0.00,WeatherTracker,2013-01-15 00:13:00,
2013-01-14 16:18:00,47.8,22.2,30.33,SE,129,0.0,1.0,36,0.00,,,0.00,WeatherTracker,2013-01-15 00:18:00,
2013-01-14 16:23:00,47.7,23.4,30.33,SE,129,0.0,1.0,38,0.00,,,0.00,WeatherTracker,2013-01-15 00:23:00,
2013-01-14 16:28:00,47.6,24.5,30.33,SE,129,0.0,0.0,40,0.00,,,0.00,WeatherTracker,2013-01-15 00:28:00,
2013-01-14 16:33:00,47.4,24.9,30.33,SE,129,0.0,0.0,41,0.00,,,0.00,WeatherTracker,2013-01-15 00:33:00,
2013-01-14 16:38:00,47.1,24.6,30.33,SE,129,0.0,0.0,41,0.00,,,0.00,WeatherTracker,2013-01-15 00:38:00,
2013-01-14 16:43:00,46.8,25.5,30.33,SE,129,0.0,0.0,43,0.00,,,0.00,WeatherTracker,2013-01-15 00:43:00,
2013-01-14 16:48:00,46.5,25.2,30.32,SE,129,0.0,0.0,43,0.00,,,0.00,WeatherTracker,2013-01-15 00:48:00,
2013-01-14 16:53:00,46.1,24.9,30.32,SE,129,0.0,0.0,43,0.00,,,0.00,WeatherTracker,2013-01-15 00:53:00,
2013-01-14 16:58:00,45.8,25.1,30.32,SE,129,0.0,0.0,44,0.00,,,0.00,WeatherTracker,2013-01-15 00:58:00,
2013-01-14 17:03:00,45.4,25.3,30.32,SE,129,0.0,0.0,45,0.00,,,0.00,WeatherTracker,2013-01-15 01:03:00,
2013-01-14 17:08:00,45.0,25.0,30.32,SE,129,0.0,0.0,45,0.00,,,0.00,WeatherTracker,2013-01-15 01:08:00,
2013-01-14 17:13:00,44.7,25.7,30.32,SE,129,0.0,0.0,47,0.00,,,0.00,WeatherTracker,2013-01-15 01:13:00,
2013-01-14 17:18:00,44.4,26.4,30.32,SE,129,0.0,0.0,49,0.00,,,0.00,WeatherTracker,2013-01-15 01:18:00,
2013-01-14 17:23:00,44.0,27.0,30.32,SE,129,0.0,0.0,51,0.00,,,0.00,WeatherTracker,2013-01-15 01:23:00,
2013-01-14 17:28:00,43.6,26.7,30.32,SE,129,0.0,0.0,51,0.00,,,0.00,WeatherTracker,2013-01-15 01:28:00,
2013-01-14 17:34:00,43.2,26.3,30.32,SE,129,0.0,0.0,51,0.00,,,0.00,WeatherTracker,2013-01-15 01:34:00,
2013-01-14 17:39:00,42.9,27.0,30.33,SE,129,0.0,0.0,53,0.00,,,0.00,WeatherTracker,2013-01-15 01:39:00,
2013-01-14 17:44:00,42.6,27.1,30.33,SE,129,0.0,0.0,54,0.00,,,0.00,WeatherTracker,2013-01-15 01:44:00,
2013-01-14 17:49:00,42.2,27.2,30.33,SE,129,0.0,0.0,55,0.00,,,0.00,WeatherTracker,2013-01-15 01:49:00,
2013-01-14 17:54:00,41.7,26.7,30.33,SE,129,0.0,0.0,55,0.00,,,0.00,WeatherTracker,2013-01-15 01:54:00,
2013-01-14 17:59:00,41.4,26.9,30.33,SE,129,0.0,0.0,56,0.00,,,0.00,WeatherTracker,2013-01-15 01:59:00,
2013-01-14 18:04:00,41.0,27.8,30.33,SE,129,0.0,0.0,59,0.00,,,0.00,WeatherTracker,2013-01-15 02:04:00,
2013-01-14 18:09:00,40.7,27.5,30.34,SE,129,0.0,0.0,59,0.00,,,0.00,WeatherTracker,2013-01-15 02:09:00,
2013-01-14 18:14:00,40.5,26.9,30.34,SE,129,0.0,0.0,58,0.00,,,0.00,WeatherTracker,2013-01-15 02:14:00,
2013-01-14 18:19:00,40.2,27.4,30.33,SE,129,0.0,0.0,60,0.00,,,0.00,WeatherTracker,2013-01-15 02:19:00,
2013-01-14 18:24:00,40.0,28.0,30.33,SE,129,0.0,0.0,62,0.00,,,0.00,WeatherTracker,2013-01-15 02:24:00,
2013-01-14 18:29:00,39.8,27.9,30.34,SE,129,0.0,0.0,62,0.00,,,0.00,WeatherTracker,2013-01-15 02:29:00,
2013-01-14 18:34:00,39.6,27.7,30.33,SE,129,0.0,0.0,62,0.00,,,0.00,WeatherTracker,2013-01-15 02:34:00,
2013-01-14 18:39:00,39.4,27.9,30.34,SE,129,0.0,0.0,63,0.00,,,0.00,WeatherTracker,2013-01-15 02:39:00,
2013-01-14 18:44:00,39.2,27.7,30.33,SE,129,0.0,0.0,63,0.00,,,0.00,WeatherTracker,2013-01-15 02:44:00,
2013-01-14 18:49:00,39.1,28.0,30.33,SE,129,0.0,0.0,64,0.00,,,0.00,WeatherTracker,2013-01-15 02:49:00,
2013-01-14 18:54:00,38.9,27.8,30.34,SE,129,0.0,0.0,64,0.00,,,0.00,WeatherTracker,2013-01-15 02:54:00,
2013-01-14 18:59:00,38.7,27.6,30.33,SE,129,0.0,0.0,64,0.00,,,0.00,WeatherTracker,2013-01-15 02:59:00,
2013-01-14 19:04:00,38.6,27.9,30.33,SE,129,0.0,0.0,65,0.00,,,0.00,WeatherTracker,2013-01-15 03:04:00,
2013-01-14 19:09:00,38.4,27.7,30.33,SE,129,0.0,0.0,65,0.00,,,0.00,WeatherTracker,2013-01-15 03:09:00,
2013-01-14 19:14:00,38.2,27.9,30.34,SE,129,0.0,0.0,66,0.00,,,0.00,WeatherTracker,2013-01-15 03:14:00,
2013-01-14 19:19:00,38.0,28.0,30.34,SE,129,0.0,0.0,67,0.00,,,0.00,WeatherTracker,2013-01-15 03:19:00,
2013-01-14 19:24:00,37.9,27.9,30.34,SE,129,0.0,0.0,67,0.00,,,0.00,WeatherTracker,2013-01-15 03:24:00,
2013-01-14 19:30:00,37.7,27.7,30.34,SE,129,0.0,0.0,67,0.00,,,0.00,WeatherTracker,2013-01-15 03:30:00,
2013-01-14 19:35:00,37.6,28.0,30.35,SE,129,0.0,0.0,68,0.00,,,0.00,WeatherTracker,2013-01-15 03:35:00,
2013-01-14 19:40:00,37.4,28.2,30.35,SE,129,0.0,0.0,69,0.00,,,0.00,WeatherTracker,2013-01-15 03:40:00,
2013-01-14 19:45:00,37.3,28.4,30.35,SE,129,0.0,0.0,70,0.00,,,0.00,WeatherTracker,2013-01-15 03:45:00,
2013-01-14 19:50:00,37.1,27.9,30.35,SE,129,0.0,0.0,69,0.00,,,0.00,WeatherTracker,2013-01-15 03:50:00,
2013-01-14 19:55:00,36.9,27.7,30.35,SE,129,0.0,0.0,69,0.00,,,0.00,WeatherTracker,2013-01-15 03:55:00,
2013-01-14 20:00:00,36.7,27.5,30.35,SE,129,0.0,0.0,69,0.00,,,0.00,WeatherTracker,2013-01-15 04:00:00,
2013-01-14 20:05:00,36.6,28.1,30.35,SE,129,0.0,0.0,71,0.00,,,0.00,WeatherTracker,2013-01-15 04:05:00,
2013-01-14 20:10:00,36.5,28.0,30.35,SE,129,0.0,0.0,71,0.00,,,0.00,WeatherTracker,2013-01-15 04:10:00,
2013-01-14 20:15:00,36.3,27.8,30.35,SE,129,0.0,0.0,71,0.00,,,0.00,WeatherTracker,2013-01-15 04:15:00,
2013-01-14 20:20:00,36.2,27.4,30.35,SE,129,0.0,0.0,70,0.00,,,0.00,WeatherTracker,2013-01-15 04:20:00,
2013-01-14 20:25:00,36.1,27.6,30.35,SE,129,0.0,0.0,71,0.00,,,0.00,WeatherTracker,2013-01-15 04:25:00,
2013-01-14 20:30:00,36.0,27.5,30.35,SE,129,0.0,0.0,71,0.00,,,0.00,WeatherTracker,2013-01-15 04:30:00,
2013-01-14 20:35:00,35.9,27.8,30.34,SE,129,0.0,0.0,72,0.00,,,0.00,WeatherTracker,2013-01-15 04:35:00,
2013-01-14 20:40:00,35.7,27.9,30.34,SE,129,0.0,0.0,73,0.00,,,0.00,WeatherTracker,2013-01-15 04:40:00,
2013-01-14 20:45:00,35.6,27.8,30.35,SE,129,0.0,0.0,73,0.00,,,0.00,WeatherTracker,2013-01-15 04:45:00,
2013-01-14 20:50:00,35.5,28.0,30.35,SE,129,0.0,0.0,74,0.00,,,0.00,WeatherTracker,2013-01-15 04:50:00,
2013-01-14 20:55:00,35.4,27.6,30.34,SE,129,0.0,0.0,73,0.00,,,0.00,WeatherTracker,2013-01-15 04:55:00,
2013-01-14 21:00:00,35.3,27.5,30.34,SE,129,0.0,0.0,73,0.00,,,0.00,WeatherTracker,2013-01-15 05:00:00,
2013-01-14 21:05:00,35.2,27.4,30.34,SE,129,0.0,0.0,73,0.00,,,0.00,WeatherTracker,2013-01-15 05:05:00,
2013-01-14 21:10:00,35.0,27.2,30.34,SE,129,0.0,0.0,73,0.00,,,0.00,WeatherTracker,2013-01-15 05:10:00,
2013-01-14 21:16:00,34.9,27.1,30.34,SE,129,0.0,0.0,73,0.00,,,0.00,WeatherTracker,2013-01-15 05:16:00,
2013-01-14 21:21:00,34.8,27.4,30.34,SE,129,0.0,0.0,74,0.00,,,0.00,WeatherTracker,2013-01-15 05:21:00,
2013-01-14 21:26:00,34.7,27.3,30.34,SE,129,0.0,0.0,74,0.00,,,0.00,WeatherTracker,2013-01-15 05:26:00,
2013-01-14 21:31:00,34.6,27.2,30.34,SE,129,0.0,0.0,74,0.00,,,0.00,WeatherTracker,2013-01-15 05:31:00,
2013-01-14 21:36:00,34.5,27.1,30.34,SE,129,0.0,0.0,74,0.00,,,0.00,WeatherTracker,2013-01-15 05:36:00,
2013-01-14 21:41:00,34.4,27.3,30.34,SE,129,0.0,0.0,75,0.00,,,0.00,WeatherTracker,2013-01-15 05:41:00,
2013-01-14 21:46:00,34.4,27.3,30.34,SE,129,0.0,0.0,75,0.00,,,0.00,WeatherTracker,2013-01-15 05:46:00,
2013-01-14 21:51:00,34.4,27.3,30.34,SE,129,0.0,0.0,75,0.00,,,0.00,WeatherTracker,2013-01-15 05:51:00,
2013-01-14 21:56:00,34.3,27.2,30.34,SE,129,0.0,0.0,75,0.00,,,0.00,WeatherTracker,2013-01-15 05:56:00,
2013-01-14 22:01:00,34.1,27.3,30.34,SE,129,0.0,0.0,76,0.00,,,0.00,WeatherTracker,2013-01-15 06:01:00,
2013-01-14 22:06:00,34.1,27.3,30.34,SE,129,0.0,0.0,76,0.00,,,0.00,WeatherTracker,2013-01-15 06:06:00,
2013-01-14 22:11:00,33.9,27.1,30.34,SE,129,0.0,0.0,76,0.00,,,0.00,WeatherTracker,2013-01-15 06:11:00,
2013-01-14 22:16:00,33.8,27.4,30.35,SE,129,0.0,0.0,77,0.00,,,0.00,WeatherTracker,2013-01-15 06:16:00,
2013-01-14 22:21:00,33.7,27.3,30.35,SE,129,0.0,0.0,77,0.00,,,0.00,WeatherTracker,2013-01-15 06:21:00,
2013-01-14 22:26:00,33.7,27.3,30.35,SE,129,0.0,0.0,77,0.00,,,0.00,WeatherTracker,2013-01-15 06:26:00,
2013-01-14 22:31:00,33.6,27.2,30.35,SE,129,0.0,0.0,77,0.00,,,0.00,WeatherTracker,2013-01-15 06:31:00,
2013-01-14 22:36:00,33.5,27.4,30.35,SE,129,0.0,0.0,78,0.00,,,0.00,WeatherTracker,2013-01-15 06:36:00,
2013-01-14 22:41:00,33.4,27.3,30.35,SE,129,0.0,0.0,78,0.00,,,0.00,WeatherTracker,2013-01-15 06:41:00,
2013-01-14 22:46:00,33.4,27.3,30.35,SE,129,0.0,0.0,78,0.00,,,0.00,WeatherTracker,2013-01-15 06:46:00,
2013-01-14 22:51:00,33.3,26.9,30.35,SE,129,0.0,0.0,77,0.00,,,0.00,WeatherTracker,2013-01-15 06:51:00,
2013-01-14 22:56:00,33.2,27.1,30.35,SE,129,0.0,0.0,78,0.00,,,0.00,WeatherTracker,2013-01-15 06:56:00,
2013-01-14 23:01:00,33.2,27.1,30.35,SE,129,0.0,0.0,78,0.00,,,0.00,WeatherTracker,2013-01-15 07:01:00,
2013-01-14 23:06:00,33.1,27.0,30.36,SE,129,0.0,0.0,78,0.00,,,0.00,WeatherTracker,2013-01-15 07:06:00,
2013-01-14 23:11:00,33.1,27.3,30.36,SE,129,0.0,0.0,79,0.00,,,0.00,WeatherTracker,2013-01-15 07:11:00,
2013-01-14 23:16:00,33.0,26.9,30.36,SE,129,0.0,0.0,78,0.00,,,0.00,WeatherTracker,2013-01-15 07:16:00,
2013-01-14 23:21:00,33.0,26.9,30.36,SE,129,0.0,0.0,78,0.00,,,0.00,WeatherTracker,2013-01-15 07:21:00,
2013-01-14 23:26:00,32.9,26.8,30.36,SE,129,0.0,0.0,78,0.00,,,0.00,WeatherTracker,2013-01-15 07:26:00,
2013-01-14 23:31:00,32.8,26.7,30.36,SE,129,0.0,0.0,78,0.00,,,0.00,WeatherTracker,2013-01-15 07:31:00,
2013-01-14 23:36:00,32.7,26.9,30.36,SE,129,0.0,0.0,79,0.00,,,0.00,WeatherTracker,2013-01-15 07:36:00,
2013-01-14 23:41:00,32.7,26.9,30.36,SE,129,0.0,0.0,79,0.00,,,0.00,WeatherTracker,2013-01-15 07:41:00,
2013-01-14 23:46:00,32.6,26.8,30.36,SE,129,0.0,0.0,79,0.00,,,0.00,WeatherTracker,2013-01-15 07:46:00,
2013-01-14 23:51:00,32.5,27.0,30.36,SE,129,0.0,0.0,80,0.00,,,0.00,WeatherTracker,2013-01-15 07:51:00,
2013-01-14 23:56:00,32.4,26.6,30.37,SE,129,0.0,0.0,79,0.00,,,0.00,WeatherTracker,2013-01-15 07:56:00,